Wilsona Gardens, California
Current Conditions -  °F | °C
As of 12:58 AM on Saturday 29 Nov 2014 (Local Time) from KEDW Reporting Station
Clear Clear  
Wind Chill: 34°   Ceiling: Unl
Heat Index: 38°   Visibility: 10mi
Dew Point: 14°   Wind: 6mph
Humidity: 38%   Direction: 180°S
Pressure: 29.9"   Gusts: NA
Location:  34.7192°N, 117.884°W
Report Text: KEDW 290858Z AUTO 18005KT 10SM CLR 04/M10 A2990 RMK AO2 SLP121 T00351098 57008
Loading
Personal Weather Stations






























Interactive Weather Map New forecast layout! Learn more

10-Day Weather Forecast

Advertisements
Track Severe Weather on mobile